createdAt,value
2023-04-15T00:02:15.426Z,11.03
2023-04-15T00:04:42.646Z,11.77
2023-04-15T00:07:10.042Z,11.20
2023-04-15T00:09:37.212Z,11.23
2023-04-15T00:12:04.620Z,10.90
2023-04-15T00:14:32.070Z,11.07
2023-04-15T00:16:59.344Z,11.60
2023-04-15T00:19:26.737Z,11.40
2023-04-15T00:21:53.880Z,10.83
2023-04-15T00:24:21.191Z,11.17
2023-04-15T00:26:49.097Z,11.90
2023-04-15T00:29:16.243Z,11.03
2023-04-15T00:31:43.399Z,12.20
2023-04-15T00:34:10.696Z,11.53
2023-04-15T00:36:37.844Z,11.70
2023-04-15T00:39:05.356Z,11.93
2023-04-15T00:41:34.045Z,11.07
2023-04-15T00:44:02.482Z,12.03
2023-04-15T00:46:30.187Z,11.17
2023-04-15T00:48:57.381Z,10.60
2023-04-15T00:51:25.649Z,10.97
2023-04-15T00:53:52.760Z,10.67
2023-04-15T00:56:21.836Z,11.90
2023-04-15T00:58:48.999Z,11.47
2023-04-15T01:01:16.308Z,11.40
2023-04-15T01:03:43.567Z,11.80
2023-04-15T01:06:11.354Z,10.60
2023-04-15T01:08:38.541Z,11.57
2023-04-15T01:11:05.757Z,12.53
2023-04-15T01:13:34.304Z,10.83
2023-04-15T01:16:02.999Z,11.87
2023-04-15T01:18:30.408Z,12.27
2023-04-15T01:20:58.155Z,10.53
2023-04-15T01:23:25.480Z,11.43
2023-04-15T01:25:54.340Z,11.37
2023-04-15T01:28:21.550Z,10.40
2023-04-15T01:30:49.120Z,10.07
2023-04-15T01:33:16.264Z,10.30
2023-04-15T01:35:44.789Z,10.50
2023-04-15T01:38:13.585Z,10.57
2023-04-15T01:40:40.911Z,9.90
2023-04-15T01:43:08.218Z,10.20
2023-04-15T01:45:35.358Z,12.87
2023-04-15T01:48:02.538Z,11.40
2023-04-15T01:50:29.752Z,11.13
2023-04-15T01:52:57.020Z,10.30
2023-04-15T01:55:24.383Z,10.73
2023-04-15T01:57:52.445Z,12.13
2023-04-15T02:00:19.611Z,11.80
2023-04-15T02:02:46.814Z,10.43
2023-04-15T02:05:14.521Z,11.17
2023-04-15T02:07:41.652Z,11.10
2023-04-15T02:10:09.337Z,10.23
2023-04-15T02:12:36.808Z,11.13
2023-04-15T02:15:04.082Z,11.80
2023-04-15T02:17:31.593Z,10.60
2023-04-15T02:19:59.326Z,10.20
2023-04-15T02:22:26.467Z,11.63
2023-04-15T02:24:53.598Z,11.23
2023-04-15T02:27:20.926Z,11.03
2023-04-15T02:29:48.118Z,11.70
2023-04-15T02:32:15.234Z,10.50
2023-04-15T02:34:42.898Z,10.30
2023-04-15T02:37:10.588Z,10.63
2023-04-15T02:39:37.971Z,11.43
2023-04-15T02:42:06.480Z,10.43
2023-04-15T02:44:35.226Z,11.63
2023-04-15T02:47:03.513Z,10.10
2023-04-15T02:49:31.095Z,10.07
2023-04-15T02:51:59.898Z,11.20
2023-04-15T02:54:29.948Z,11.73
2023-04-15T02:56:57.079Z,12.73
2023-04-15T02:59:24.200Z,10.17
2023-04-15T03:01:51.614Z,10.90
2023-04-15T03:04:18.896Z,10.70
2023-04-15T03:06:46.222Z,11.80
2023-04-15T03:09:13.385Z,11.37
2023-04-15T03:11:42.028Z,10.80
2023-04-15T03:14:09.258Z,11.50
2023-04-15T03:16:36.434Z,10.10
2023-04-15T03:19:04.133Z,11.43
2023-04-15T03:21:31.383Z,10.90
2023-04-15T03:23:58.557Z,10.87
2023-04-15T03:26:29.463Z,10.03
2023-04-15T03:28:56.883Z,10.40
2023-04-15T03:31:24.386Z,10.93
2023-04-15T03:33:51.548Z,13.17
2023-04-15T03:36:18.728Z,11.53
2023-04-15T03:38:45.950Z,12.00
2023-04-15T03:41:13.114Z,11.70
2023-04-15T03:43:40.510Z,11.03
2023-04-15T03:46:07.777Z,11.00
2023-04-15T03:48:34.953Z,12.43
2023-04-15T03:51:02.163Z,11.43
2023-04-15T03:53:29.324Z,11.37
2023-04-15T03:55:56.907Z,11.00
2023-04-15T03:58:24.041Z,12.17
2023-04-15T04:00:51.439Z,10.87
2023-04-15T04:03:18.908Z,10.37
2023-04-15T04:05:46.415Z,12.23
2023-04-15T04:08:14.011Z,10.83
2023-04-15T04:10:41.222Z,11.57
2023-04-15T04:13:08.351Z,11.07
2023-04-15T04:15:36.673Z,12.30
2023-04-15T04:18:03.927Z,12.13
2023-04-15T04:20:32.146Z,11.87
2023-04-15T04:22:59.370Z,11.67
2023-04-15T04:25:27.276Z,11.57
2023-04-15T04:27:54.464Z,14.17
2023-04-15T04:30:21.664Z,12.00
2023-04-15T04:32:50.908Z,12.80
2023-04-15T04:35:18.123Z,11.40
2023-04-15T04:37:45.266Z,12.67
2023-04-15T04:40:13.130Z,12.37
2023-04-15T04:42:40.574Z,11.00
2023-04-15T04:45:08.643Z,11.23
2023-04-15T04:47:35.822Z,15.03
2023-04-15T04:50:03.522Z,12.23
2023-04-15T04:52:30.663Z,12.03
2023-04-15T04:54:57.794Z,10.77
2023-04-15T04:57:24.964Z,11.60
2023-04-15T04:59:52.511Z,14.03
2023-04-15T05:02:19.822Z,14.00
2023-04-15T05:04:47.026Z,13.70
2023-04-15T05:07:14.135Z,12.77
2023-04-15T05:09:41.947Z,12.47
2023-04-15T05:12:14.044Z,10.93
2023-04-15T05:14:44.710Z,12.00
2023-04-15T05:17:12.443Z,12.67
2023-04-15T05:19:39.638Z,14.77
2023-04-15T05:22:06.970Z,10.80
2023-04-15T05:24:34.131Z,14.03
2023-04-15T05:27:02.246Z,11.77
2023-04-15T05:29:29.413Z,11.63
2023-04-15T05:31:56.713Z,12.47
2023-04-15T05:34:23.940Z,12.63
2023-04-15T05:36:51.065Z,11.33
2023-04-15T05:39:18.311Z,13.17
2023-04-15T05:41:45.680Z,11.03
2023-04-15T05:44:12.849Z,12.20
2023-04-15T05:46:40.207Z,13.87
2023-04-15T05:49:07.888Z,13.10
2023-04-15T05:51:35.032Z,12.47
2023-04-15T05:54:02.253Z,13.67
2023-04-15T05:56:29.430Z,13.33
2023-04-15T05:58:56.582Z,11.93
2023-04-15T06:01:24.045Z,13.37
2023-04-15T06:03:51.563Z,12.97
2023-04-15T06:06:18.851Z,12.80
2023-04-15T06:08:46.280Z,13.40
2023-04-15T06:11:13.457Z,13.53
2023-04-15T06:13:40.641Z,13.80
2023-04-15T06:16:08.068Z,12.53
2023-04-15T06:18:35.281Z,13.17
2023-04-15T06:21:02.492Z,16.13
2023-04-15T06:23:29.692Z,13.13
2023-04-15T06:25:56.858Z,12.90
2023-04-15T06:28:23.988Z,13.87
2023-04-15T06:30:51.196Z,12.00
2023-04-15T06:33:18.344Z,12.97
2023-04-15T06:35:45.614Z,13.23
2023-04-15T06:38:12.768Z,13.83
2023-04-15T06:40:39.946Z,12.70
2023-04-15T06:43:07.954Z,13.20
2023-04-15T06:45:35.332Z,13.90
2023-04-15T06:48:02.571Z,12.63
2023-04-15T06:50:29.769Z,13.33
2023-04-15T06:52:57.361Z,14.13
2023-04-15T06:55:24.517Z,14.13
2023-04-15T06:57:51.668Z,12.37
2023-04-15T07:00:18.976Z,13.13
2023-04-15T07:02:46.717Z,12.63
2023-04-15T07:05:13.964Z,13.53
2023-04-15T07:07:41.148Z,14.27
2023-04-15T07:10:08.576Z,14.67
2023-04-15T07:12:35.914Z,13.07
2023-04-15T07:15:03.518Z,13.30
2023-04-15T07:17:30.796Z,14.67
2023-04-15T07:19:58.121Z,15.70
2023-04-15T07:22:26.339Z,15.20
2023-04-15T07:24:53.457Z,13.43
2023-04-15T07:27:20.970Z,11.60
2023-04-15T07:29:48.216Z,13.00
2023-04-15T07:32:15.363Z,14.80
2023-04-15T07:34:43.146Z,12.87
2023-04-15T07:37:10.352Z,12.93
2023-04-15T07:39:37.531Z,14.37
2023-04-15T07:42:04.700Z,12.60
2023-04-15T07:44:32.013Z,16.00
2023-04-15T07:46:59.235Z,15.82
2023-04-15T07:49:26.491Z,12.93
2023-04-15T07:51:53.973Z,15.70
2023-04-15T07:54:21.110Z,13.47
2023-04-15T07:56:48.265Z,11.73
2023-04-15T07:59:17.749Z,15.07
2023-04-15T08:01:45.053Z,12.23
2023-04-15T08:04:12.426Z,14.20
2023-04-15T08:06:40.089Z,14.47
2023-04-15T08:09:08.183Z,14.77
2023-04-15T08:11:36.469Z,14.00
2023-04-15T08:14:03.693Z,11.80
2023-04-15T08:16:31.013Z,14.00
2023-04-15T08:18:58.578Z,13.20
2023-04-15T08:21:26.060Z,11.80
2023-04-15T08:23:53.713Z,12.77
2023-04-15T08:26:21.561Z,13.40
2023-04-15T08:28:49.270Z,15.00
2023-04-15T08:31:17.360Z,13.57
2023-04-15T08:33:44.989Z,12.50
2023-04-15T08:36:12.165Z,12.50
2023-04-15T08:38:39.296Z,10.67
2023-04-15T08:41:10.870Z,13.20
2023-04-15T08:43:41.487Z,15.07
2023-04-15T08:46:10.569Z,14.50
2023-04-15T08:48:40.606Z,13.00
2023-04-15T08:51:08.562Z,14.13
2023-04-15T08:53:35.791Z,14.60
2023-04-15T08:56:06.163Z,13.40
2023-04-15T08:58:33.445Z,12.77
2023-04-15T09:01:00.850Z,11.67
2023-04-15T09:03:29.342Z,11.80
2023-04-15T09:05:56.668Z,11.77
2023-04-15T09:08:23.831Z,13.43
2023-04-15T09:10:51.333Z,12.87
2023-04-15T09:13:19.121Z,14.57
2023-04-15T09:15:46.352Z,12.10
2023-04-15T09:18:13.923Z,14.90
2023-04-15T09:20:42.570Z,12.93
2023-04-15T09:23:14.120Z,13.07
2023-04-15T09:25:45.008Z,14.50
2023-04-15T09:28:12.150Z,14.50
2023-04-15T09:30:39.417Z,14.60
2023-04-15T09:33:10.956Z,14.17
2023-04-15T09:35:38.301Z,12.87
2023-04-15T09:38:09.823Z,12.77
2023-04-15T09:40:41.851Z,12.97
2023-04-15T09:43:09.729Z,12.90
2023-04-15T09:45:37.239Z,11.40
2023-04-15T09:48:24.587Z,13.37
2023-04-15T09:50:53.727Z,13.20
2023-04-15T09:53:21.768Z,11.03
2023-04-15T09:55:53.258Z,11.27
2023-04-15T09:58:24.308Z,13.20
2023-04-15T10:00:52.260Z,12.83
2023-04-15T10:03:36.933Z,10.80
2023-04-15T10:06:05.574Z,11.67
2023-04-15T10:08:34.926Z,11.97
2023-04-15T10:11:05.651Z,11.83
2023-04-15T10:13:35.034Z,11.23
2023-04-15T10:16:11.441Z,13.23
2023-04-15T10:19:04.632Z,10.70
2023-04-15T10:21:32.193Z,12.87
2023-04-15T10:23:59.785Z,12.25
2023-04-15T10:26:27.374Z,12.07
2023-04-15T10:28:54.551Z,11.63
2023-04-15T10:31:22.240Z,11.63
2023-04-15T10:33:50.105Z,10.70
2023-04-15T10:36:17.839Z,11.53
2023-04-15T10:38:45.819Z,11.63
2023-04-15T10:41:13.212Z,15.20
2023-04-15T10:43:40.547Z,11.40
2023-04-15T10:46:07.803Z,11.80
2023-04-15T10:48:34.993Z,11.37
2023-04-15T10:51:02.556Z,12.50
2023-04-15T10:53:31.048Z,12.57
2023-04-15T10:55:58.919Z,11.30
2023-04-15T10:58:26.478Z,12.07
2023-04-15T11:00:54.587Z,11.17
2023-04-15T11:03:37.546Z,10.30
2023-04-15T11:06:04.849Z,12.00
2023-04-15T11:08:50.873Z,10.50
2023-04-15T11:11:18.000Z,11.10
2023-04-15T11:13:49.307Z,10.60
2023-04-15T11:16:16.968Z,11.50
2023-04-15T11:18:53.961Z,11.27
2023-04-15T11:21:25.183Z,11.77
2023-04-15T11:23:52.455Z,10.77
2023-04-15T11:26:19.635Z,10.47
2023-04-15T11:28:46.803Z,13.60
2023-04-15T11:31:18.531Z,10.13
2023-04-15T11:33:56.569Z,12.37
2023-04-15T11:36:27.665Z,12.03
2023-04-15T11:38:55.108Z,12.03
2023-04-15T11:41:23.187Z,10.30
2023-04-15T11:43:50.965Z,10.63
2023-04-15T11:46:18.503Z,9.07
2023-04-15T11:48:46.433Z,11.17
2023-04-15T11:51:14.371Z,10.83
2023-04-15T11:53:43.369Z,9.83
2023-04-15T11:56:11.599Z,12.23
2023-04-15T11:58:39.192Z,10.67
2023-04-15T12:01:06.845Z,10.27
2023-04-15T12:03:41.567Z,9.13
2023-04-15T12:06:13.404Z,12.00
2023-04-15T12:09:00.360Z,9.95
2023-04-15T12:11:27.654Z,11.15
2023-04-15T12:13:56.667Z,10.75
2023-04-15T12:16:24.362Z,11.23
2023-04-15T12:18:52.590Z,12.02
2023-04-15T12:21:23.716Z,8.75
2023-04-15T12:23:52.088Z,10.93
2023-04-15T12:26:19.696Z,10.30
2023-04-15T12:28:46.876Z,9.07
2023-04-15T12:31:15.221Z,9.98
2023-04-15T12:33:42.453Z,8.52
2023-04-15T12:36:09.641Z,9.88
2023-04-15T12:38:36.831Z,8.82
2023-04-15T12:41:03.972Z,8.57
2023-04-15T12:43:31.345Z,11.02
2023-04-15T12:45:58.577Z,8.88
2023-04-15T12:48:25.887Z,11.20
2023-04-15T12:50:53.000Z,8.13
2023-04-15T12:53:21.248Z,9.20
2023-04-15T12:55:48.445Z,9.30
2023-04-15T12:58:15.606Z,10.63
2023-04-15T13:00:42.850Z,8.23
2023-04-15T13:03:10.095Z,10.15
2023-04-15T13:05:39.152Z,9.00
2023-04-15T13:08:06.943Z,10.15
2023-04-15T13:10:36.420Z,9.43
2023-04-15T13:13:03.617Z,9.10
2023-04-15T13:15:30.797Z,9.38
2023-04-15T13:17:57.984Z,8.80
2023-04-15T13:20:27.015Z,9.35
2023-04-15T13:22:54.698Z,9.23
2023-04-15T13:25:22.150Z,10.65
2023-04-15T13:27:49.325Z,8.07
2023-04-15T13:30:16.519Z,8.10
2023-04-15T13:32:43.775Z,9.85
2023-04-15T13:35:11.213Z,11.05
2023-04-15T13:37:39.415Z,8.50
2023-04-15T13:40:07.506Z,10.10
2023-04-15T13:42:34.728Z,9.60
2023-04-15T13:45:01.866Z,8.68
2023-04-15T13:47:29.054Z,8.98
2023-04-15T13:49:56.667Z,7.53
2023-04-15T13:52:24.229Z,8.88
2023-04-15T13:55:18.597Z,9.35
2023-04-15T13:57:39.061Z,8.52
2023-04-15T14:00:06.913Z,8.55
2023-04-15T14:02:34.390Z,7.97
2023-04-15T14:05:01.647Z,7.05
2023-04-15T14:07:29.936Z,8.13
2023-04-15T14:09:57.403Z,10.82
2023-04-15T14:12:24.569Z,8.10
2023-04-15T14:14:51.704Z,8.13
2023-04-15T14:17:18.918Z,10.02
2023-04-15T14:19:46.203Z,8.30
2023-04-15T14:22:13.404Z,6.77
2023-04-15T14:24:40.552Z,8.33
2023-04-15T14:27:08.805Z,8.03
2023-04-15T14:29:36.136Z,9.10
2023-04-15T14:32:11.327Z,8.47
2023-04-15T14:34:39.720Z,9.00
2023-04-15T14:37:06.972Z,7.43
2023-04-15T14:39:34.622Z,7.40
2023-04-15T14:42:01.813Z,9.40
2023-04-15T14:44:29.180Z,7.40
2023-04-15T14:46:56.627Z,8.33
2023-04-15T14:49:23.774Z,9.73
2023-04-15T14:51:50.898Z,8.57
2023-04-15T14:54:18.057Z,7.10
2023-04-15T14:56:45.367Z,7.80
2023-04-15T14:59:12.911Z,9.47
2023-04-15T15:01:40.249Z,7.20
2023-04-15T15:04:07.799Z,7.17
2023-04-15T15:06:35.641Z,7.80
2023-04-15T15:09:02.879Z,7.60
2023-04-15T15:11:30.388Z,8.63
2023-04-15T15:13:58.396Z,8.97
2023-04-15T15:16:26.194Z,8.37
2023-04-15T15:18:53.370Z,7.83
2023-04-15T15:21:20.524Z,7.63
2023-04-15T15:23:48.437Z,7.83
2023-04-15T15:26:16.046Z,8.97
2023-04-15T15:28:44.722Z,6.30
2023-04-15T15:31:11.919Z,7.87
2023-04-15T15:33:39.058Z,9.53
2023-04-15T15:36:06.270Z,6.57
2023-04-15T15:38:33.609Z,8.53
2023-04-15T15:41:00.916Z,9.80
2023-04-15T15:43:28.186Z,7.40
2023-04-15T15:45:55.680Z,9.03
2023-04-15T15:48:26.416Z,7.47
2023-04-15T15:50:53.690Z,8.03
2023-04-15T15:53:21.241Z,8.90
2023-04-15T15:55:48.550Z,8.67
2023-04-15T15:58:16.090Z,6.90
2023-04-15T16:00:43.521Z,8.73
2023-04-15T16:03:10.931Z,7.43
2023-04-15T16:05:38.841Z,8.60
2023-04-15T16:08:06.285Z,6.65
2023-04-15T16:10:33.432Z,9.15
2023-04-15T16:13:00.683Z,7.78
2023-04-15T16:15:27.878Z,8.25
2023-04-15T16:17:55.227Z,9.48
2023-04-15T16:20:22.472Z,8.93
2023-04-15T16:22:49.643Z,7.28
2023-04-15T16:25:16.855Z,7.65
2023-04-15T16:27:58.941Z,9.35
2023-04-15T16:30:29.507Z,9.35
2023-04-15T16:32:57.147Z,8.52
2023-04-15T16:35:24.358Z,7.97
2023-04-15T16:37:51.535Z,7.07
2023-04-15T16:40:18.710Z,6.97
2023-04-15T16:42:45.972Z,9.50
2023-04-15T16:45:13.093Z,7.20
2023-04-15T16:47:40.456Z,9.80
2023-04-15T16:50:08.078Z,8.93
2023-04-15T16:52:35.250Z,8.27
2023-04-15T16:55:02.456Z,8.87
2023-04-15T16:57:33.725Z,9.43
2023-04-15T17:00:16.762Z,9.20
2023-04-15T17:02:44.134Z,9.77
2023-04-15T17:05:11.466Z,8.53
2023-04-15T17:07:38.629Z,9.03
2023-04-15T17:10:06.005Z,8.63
2023-04-15T17:12:33.207Z,8.27
2023-04-15T17:15:00.371Z,8.20
2023-04-15T17:17:27.534Z,8.53
2023-04-15T17:19:54.742Z,8.63
2023-04-15T17:22:21.895Z,8.80
2023-04-15T17:24:49.048Z,10.67
2023-04-15T17:27:16.312Z,9.17
2023-04-15T17:29:43.625Z,7.20
2023-04-15T17:32:11.228Z,19.00
2023-04-15T17:34:50.454Z,8.80
2023-04-15T17:37:18.598Z,8.03
2023-04-15T17:39:46.183Z,9.00
2023-04-15T17:42:13.646Z,9.07
2023-04-15T17:44:41.019Z,7.27
2023-04-15T17:47:08.203Z,9.07
2023-04-15T17:49:37.678Z,8.37
2023-04-15T17:52:04.918Z,7.50
2023-04-15T17:54:32.176Z,7.83
2023-04-15T17:57:00.158Z,9.97
2023-04-15T17:59:28.163Z,8.97
2023-04-15T18:01:55.643Z,8.70
2023-04-15T18:04:26.453Z,8.67
2023-04-15T18:06:54.296Z,9.70
2023-04-15T18:09:21.689Z,9.97
2023-04-15T18:11:49.065Z,10.70
2023-04-15T18:14:27.106Z,8.07
2023-04-15T18:17:00.764Z,11.00
2023-04-15T18:19:28.204Z,9.93
2023-04-15T18:21:55.362Z,9.13
2023-04-15T18:24:22.972Z,8.03
2023-04-15T18:26:50.170Z,8.27
2023-04-15T18:29:18.485Z,9.20
2023-04-15T18:31:45.827Z,8.00
2023-04-15T18:34:13.342Z,9.30
2023-04-15T18:36:40.490Z,9.13
2023-04-15T18:39:07.961Z,9.03
2023-04-15T18:41:35.417Z,8.70
2023-04-15T18:44:02.629Z,8.27
2023-04-15T18:46:29.832Z,7.47
2023-04-15T18:48:56.950Z,7.63
2023-04-15T18:51:24.168Z,9.93
2023-04-15T18:53:51.504Z,9.23
2023-04-15T18:56:18.686Z,9.07
2023-04-15T18:59:25.767Z,9.63
2023-04-15T19:01:33.479Z,9.23
2023-04-15T19:04:01.636Z,8.97
2023-04-15T19:06:29.346Z,8.23
2023-04-15T19:08:58.500Z,7.47
2023-04-15T19:11:26.270Z,9.80
2023-04-15T19:13:53.515Z,7.67
2023-04-15T19:16:20.974Z,7.53
2023-04-15T19:18:48.187Z,7.93
2023-04-15T19:21:16.150Z,7.57
2023-04-15T19:23:43.464Z,7.93
2023-04-15T19:26:10.798Z,8.10
2023-04-15T19:28:37.996Z,8.67
2023-04-15T19:31:05.158Z,7.87
2023-04-15T19:33:32.470Z,10.30
2023-04-15T19:36:04.137Z,7.00
2023-04-15T19:38:31.609Z,7.90
2023-04-15T19:40:59.283Z,8.97
2023-04-15T19:43:26.471Z,9.17
2023-04-15T19:45:54.650Z,8.50
2023-04-15T19:48:22.093Z,8.20
2023-04-15T19:50:49.358Z,7.10
2023-04-15T19:53:16.509Z,7.63
2023-04-15T19:55:43.708Z,7.73
2023-04-15T19:58:11.294Z,9.23
2023-04-15T20:00:38.706Z,7.57
2023-04-15T20:03:06.915Z,7.90
2023-04-15T20:05:34.111Z,7.77
2023-04-15T20:08:01.747Z,8.10
2023-04-15T20:10:29.717Z,7.53
2023-04-15T20:12:56.883Z,8.60
2023-04-15T20:15:24.302Z,8.17
2023-04-15T20:17:51.706Z,8.83
2023-04-15T20:20:18.897Z,7.87
2023-04-15T20:22:46.057Z,8.03
2023-04-15T20:25:13.274Z,7.80
2023-04-15T20:27:40.643Z,9.77
2023-04-15T20:30:08.183Z,9.60
2023-04-15T20:32:36.129Z,9.07
2023-04-15T20:35:04.230Z,8.43
2023-04-15T20:37:33.140Z,7.90
2023-04-15T20:40:00.736Z,7.90
2023-04-15T20:42:28.059Z,8.17
2023-04-15T20:44:55.572Z,8.90
2023-04-15T20:47:22.845Z,7.80
2023-04-15T20:49:50.201Z,8.23
2023-04-15T20:52:17.346Z,7.97
2023-04-15T20:54:44.773Z,8.07
2023-04-15T20:57:11.928Z,7.40
2023-04-15T20:59:39.105Z,8.57
2023-04-15T21:02:06.581Z,8.33
2023-04-15T21:04:33.801Z,8.17
2023-04-15T21:07:00.945Z,8.80
2023-04-15T21:09:28.143Z,8.00
2023-04-15T21:12:00.443Z,8.17
2023-04-15T21:14:28.971Z,8.07
2023-04-15T21:16:58.048Z,9.13
2023-04-15T21:19:25.352Z,8.00
2023-04-15T21:21:52.937Z,8.57
2023-04-15T21:24:20.230Z,9.17
2023-04-15T21:26:47.373Z,9.17
2023-04-15T21:29:14.790Z,9.63
2023-04-15T21:31:42.287Z,7.67
2023-04-15T21:34:09.610Z,9.40
2023-04-15T21:36:37.504Z,6.87
2023-04-15T21:39:05.221Z,8.77
2023-04-15T21:41:32.731Z,7.63
2023-04-15T21:44:00.064Z,8.33
2023-04-15T21:46:33.005Z,7.33
2023-04-15T21:49:02.477Z,8.80
2023-04-15T21:51:29.656Z,8.13
2023-04-15T21:53:56.782Z,8.43
2023-04-15T21:56:24.679Z,11.57
2023-04-15T21:58:54.790Z,8.23
2023-04-15T22:01:22.064Z,8.00
2023-04-15T22:03:49.439Z,7.97
2023-04-15T22:06:16.705Z,7.60
2023-04-15T22:08:53.128Z,8.53
2023-04-15T22:11:26.609Z,9.57
2023-04-15T22:13:54.561Z,9.17
2023-04-15T22:16:21.862Z,8.33
2023-04-15T22:18:49.145Z,8.40
2023-04-15T22:21:16.327Z,8.77
2023-04-15T22:23:46.958Z,8.47
2023-04-15T22:26:14.253Z,9.23
2023-04-15T22:28:41.852Z,8.90
2023-04-15T22:31:09.135Z,8.47
2023-04-15T22:33:36.586Z,7.53
2023-04-15T22:36:03.800Z,8.07
2023-04-15T22:38:31.072Z,8.90
2023-04-15T22:40:58.498Z,7.47
2023-04-15T22:43:27.349Z,8.03
2023-04-15T22:45:55.021Z,9.47
2023-04-15T22:48:22.425Z,8.70
2023-04-15T22:50:49.794Z,8.73
2023-04-15T22:53:20.079Z,8.43
2023-04-15T22:55:47.577Z,9.33
2023-04-15T22:58:15.485Z,8.43
2023-04-15T23:00:42.677Z,9.00
2023-04-15T23:03:10.168Z,7.97
2023-04-15T23:05:39.878Z,9.73
2023-04-15T23:08:07.198Z,9.80
2023-04-15T23:10:34.472Z,7.67
2023-04-15T23:13:01.649Z,9.03
2023-04-15T23:15:28.791Z,9.80
2023-04-15T23:17:55.994Z,9.83
2023-04-15T23:20:23.244Z,9.57
2023-04-15T23:22:50.542Z,10.53
2023-04-15T23:25:17.835Z,8.43
2023-04-15T23:27:44.997Z,12.10
2023-04-15T23:30:12.206Z,8.90
2023-04-15T23:32:39.433Z,9.00
2023-04-15T23:35:06.809Z,8.27
2023-04-15T23:37:33.960Z,8.27
2023-04-15T23:40:01.085Z,8.53
2023-04-15T23:42:28.266Z,8.17
2023-04-15T23:44:55.625Z,9.33
2023-04-15T23:47:22.876Z,10.83
2023-04-15T23:49:50.018Z,9.30
2023-04-15T23:52:17.201Z,9.47
2023-04-15T23:54:44.356Z,8.40
2023-04-15T23:57:11.508Z,9.37
2023-04-15T23:59:38.692Z,8.80
